Tuesday, September 30, 2014
22:01 UTC
  |  Log In   |  Register Free
Airport Search:

Bishop International Airport
(KFNT)

FAA data valid effective September 18, 2014 - November 13, 2014 (unless otherwise noted).

 
 
 
 
 
 
 
 
 
 
 
 
 
 

Current Aviation Weather for Bishop International Airport (KFNT)

The most recent METAR observation for KFNT was updated at: 2111
METAR Summary (Translated METAR)
KFNT
302053Z 34007KT 3SM HZ BKN009 OVC014 12/09 A3001 RMK AO2 CIG 007V012 SLP165 T01170089 53001
KRNP
302059Z AUTO 01006KT 10SM OVC016 11/09 A3000 RMK AO2
(17.4 nm NW from KFNT)
KOZW
302055Z AUTO 02004KT 10SM OVC015 12/09 A2999 RMK AO2 T01150086
(22.7 nm SW from KFNT)
TAF Summary (Translated TAF)
KFNT
301734Z 3018/0118 36008KT P6SM SCT010 OVC015 TEMPO 3018/3020 6SM -DZ OVC012 FM302200 33005KT P6SM OVC018 FM010800 VRB03KT 3SM BR OVC006 FM011400 11005KT P6SM OVC016
  Airport Weather Conditions for KFNT

 Current Weather at FNT
53° F
Overcast with Haze
North winds at 8.1 mph
FNT NOAA Radar

Pressure: 30.01 in
Humidity: 83%
Wind: North at 8.1 MPH (7 KT)
Dew Point: 48.0°F
Visibility: 3.00 mi


Airport Weather Forecast for KFNT

Translated METAR and TAF for KFNT
Translated METAR for KFNT (2155 UTC 30 September 2014)
found at http://aviationweather.gov/adds/metars/
 
METAR text: KFNT 302053Z 34007KT 3SM HZ BKN009 OVC014 12/09 A3001 RMK AO2 CIG 007V012 SLP165 T01170089 53001
Conditions at: KFNT (FLINT , MI, US) observed 2053 UTC 30 September 2014
Temperature: 11.7°C (53°F)
Dewpoint: 8.9°C (48°F) [RH = 83%]
Pressure (altimeter): 30.01 inches Hg (1016.3 mb)
[Sea-level pressure: 1016.5 mb]
Winds: from the NNW (340 degrees) at 8 MPH (7 knots; 3.6 m/s)
Visibility: 3 miles (5 km)
Ceiling: 900 feet AGL
Clouds: broken clouds at 900 feet AGL
overcast cloud deck at 1400 feet AGL
Weather: HZ  (haze)
Translated TAF for KFNT
Forecast for: KFNT (FLINT , MI, US)
TAF Text: KFNT 301734Z 3018/0118 36008KT P6SM SCT010 OVC015
Forecast period: 1800 to 2200 UTC 30 September 2014
Forecast type: FROM: standard forecast or significant change
Winds: from the N (360 degrees) at 9 MPH (8 knots; 4.2 m/s)
Visibility: 6 or more miles (10+ km)
Ceiling: 1500 feet AGL
Clouds: scattered clouds at 1000 feet AGL
overcast cloud deck at 1500 feet AGL
Weather: no significant weather forecast for this period
TAF Text: TEMPO 3018/3020 6SM -DZ OVC012
Forecast period: 1800 to 2000 UTC 30 September 2014
Forecast type: TEMPORARY: The following changes expected for less than half the time period
Visibility: 6 miles (10 km)
Ceiling: 1200 feet AGL
Clouds: overcast cloud deck at 1200 feet AGL
Weather: -DZ  (light drizzle)
TAF Text: FM302200 33005KT P6SM OVC018
Forecast period: 2200 UTC 30 September 2014 to 0800 UTC 01 October 2014
Forecast type: FROM: standard forecast or significant change
Winds: from the NNW (330 degrees) at 6 MPH (5 knots; 2.6 m/s)
Visibility: 6 or more miles (10+ km)
Ceiling: 1800 feet AGL
Clouds: overcast cloud deck at 1800 feet AGL
Weather: no significant weather forecast for this period
TAF Text: FM010800 VRB03KT 3SM BR OVC006
Forecast period: 0800 to 1400 UTC 01 October 2014
Forecast type: FROM: standard forecast or significant change
Winds: variable direction winds at 3 MPH (3 knots; 1.6 m/s)
Visibility: 3 miles (5 km)
Ceiling: 600 feet AGL
Clouds: overcast cloud deck at 600 feet AGL
Weather: BR  (mist)
TAF Text: FM011400 11005KT P6SM OVC016
Forecast period: 1400 to 1800 UTC 01 October 2014
Forecast type: FROM: standard forecast or significant change
Winds: from the ESE (110 degrees) at 6 MPH (5 knots; 2.6 m/s)
Visibility: 6 or more miles (10+ km)
Ceiling: 1600 feet AGL
Clouds: overcast cloud deck at 1600 feet AGL
Weather: no significant weather forecast for this period

Find All Airport Services Find A Hotel Find A Rental Car Find A Golf Course Find A Restaurant $100 Hamburger



FBO's on the Field
FBO Company Facility Photos Services Transportation Aviation Fuel Prices: Prices include tax
Catering Weather Repair Courtesy Rental Type 100LL JetA JetA+ MOGAS 8087
 
Avflight Flint

This FBO has not yet been rated
FS:Avfuel
Last Updated: Sep-29
Login to update fuel prices
SS:
Contact Avflight FlintMore FBO Information
 
Add another FBO Facility Photos Catering Weather Repair Courtesy Rental Type 100LL JetA JetA+ MOGAS 8087
Services Transportation Aviation Fuel Prices: Prices include tax


model-print
model-print
model-print
model-print